Time;durP1;ratioP1;P1;durP2;ratioP2;P2;SDS_P1;SDS_P2;PMS_P1;PMS_P2;Temp;Humidity;BMP_temperature;BMP_pressure;BME280_temperature;BME280_humidity;BME280_pressure;Samples;Min_cycle;Max_cycle;Signal;HPM_P1;HPM_P2
2023/03/01 00:01:16;;;;;;;1.10;1.10;;;;;;;;;;5015580;28;20201;-82
2023/03/01 00:03:45;;;;;;;1.00;1.00;;;;;;;;;;5015211;28;20264;-82
2023/03/01 00:06:14;;;;;;;2.57;2.47;;;;;;;;;;5015439;28;20210;-82
2023/03/01 00:08:43;;;;;;;3.00;2.83;;;;;;;;;;5015626;28;20292;-82
2023/03/01 00:11:13;;;;;;;4.43;4.13;;;;;;;;;;5015247;28;20202;-82
2023/03/01 00:13:42;;;;;;;2.50;2.40;;;;;;;;;;5015460;28;20265;-82
2023/03/01 00:16:11;;;;;;;9.33;2.50;;;;;;;;;;5015585;28;20202;-82
2023/03/01 00:18:44;;;;;;;1.00;1.00;;;;;;;;;;5015151;28;20202;-82
2023/03/01 00:21:17;;;;;;;1.77;1.67;;;;;;;;;;4998109;28;20218;-82
2023/03/01 00:23:45;;;;;;;3.73;3.43;;;;;;;;;;5015256;28;20228;-82
2023/03/01 00:26:15;;;;;;;4.50;4.20;;;;;;;;;;5015046;28;20209;-81
2023/03/01 00:28:43;;;;;;;4.60;4.07;;;;;;;;;;5014643;28;20209;-81
2023/03/01 00:31:13;;;;;;;4.00;3.80;;;;;;;;;;5015106;28;20201;-81
2023/03/01 00:33:41;;;;;;;3.33;3.03;;;;;;;;;;5015310;28;20421;-81
2023/03/01 00:36:11;;;;;;;3.57;2.77;;;;;;;;;;5015199;28;20206;-81
2023/03/01 00:38:41;;;;;;;4.13;3.77;;;;;;;;;;5014759;28;20206;-82
2023/03/01 00:41:11;;;;;;;3.90;3.60;;;;;;;;;;5013811;28;20347;-81
2023/03/01 00:43:39;;;;;;;3.50;3.30;;;;;;;;;;5014639;28;20266;-81
2023/03/01 00:46:09;;;;;;;4.17;3.87;;;;;;;;;;5014369;28;20320;-82
2023/03/01 00:48:38;;;;;;;4.07;3.23;;;;;;;;;;5014547;28;20252;-82
2023/03/01 00:51:07;;;;;;;3.87;3.57;;;;;;;;;;5014343;28;20277;-82
2023/03/01 00:53:36;;;;;;;3.57;3.37;;;;;;;;;;5014313;28;20237;-82
2023/03/01 00:56:07;;;;;;;4.17;3.77;;;;;;;;;;5014788;28;20200;-82
2023/03/01 00:58:36;;;;;;;2.33;2.23;;;;;;;;;;5014758;28;20229;-81
2023/03/01 01:01:16;;;;;;;5.40;4.47;;;;;;;;;;5014156;28;20210;-82
2023/03/01 01:03:46;;;;;;;6.60;5.90;;;;;;;;;;5014184;28;20195;-82
2023/03/01 01:06:15;;;;;;;7.03;5.73;;;;;;;;;;5014464;28;20209;-82
2023/03/01 01:08:43;;;;;;;3.47;3.00;;;;;;;;;;5014424;28;20198;-82
2023/03/01 01:11:13;;;;;;;2.13;2.03;;;;;;;;;;5014107;28;20202;-81
2023/03/01 01:13:42;;;;;;;1.10;1.10;;;;;;;;;;5014227;28;20202;-81
2023/03/01 01:16:10;;;;;;;2.03;2.03;;;;;;;;;;5014362;28;20247;-81
2023/03/01 01:18:39;;;;;;;1.37;1.37;;;;;;;;;;5014181;28;20202;-81
2023/03/01 01:21:09;;;;;;;1.67;1.67;;;;;;;;;;5014364;28;20205;-81
2023/03/01 01:23:38;;;;;;;3.40;3.17;;;;;;;;;;5014293;28;20234;-81
2023/03/01 01:26:07;;;;;;;2.47;2.30;;;;;;;;;;5014081;28;20238;-81
2023/03/01 01:28:37;;;;;;;4.33;4.03;;;;;;;;;;5014357;28;20205;-81
2023/03/01 01:31:05;;;;;;;4.70;4.30;;;;;;;;;;5014038;28;20254;-81
2023/03/01 01:33:34;;;;;;;4.10;3.80;;;;;;;;;;5014174;28;20257;-82
2023/03/01 01:36:03;;;;;;;2.57;2.47;;;;;;;;;;5015079;28;20197;-82
2023/03/01 01:38:31;;;;;;;1.30;1.30;;;;;;;;;;5014349;28;20233;-82
2023/03/01 01:40:59;;;;;;;2.83;2.27;;;;;;;;;;5014302;28;20220;-81
2023/03/01 01:43:29;;;;;;;4.30;4.00;;;;;;;;;;5014194;28;20231;-82
2023/03/01 01:46:00;;;;;;;2.20;2.10;;;;;;;;;;5014627;28;20224;-81
2023/03/01 01:48:40;;;;;;;1.83;1.73;;;;;;;;;;5014436;28;20215;-82
2023/03/01 01:51:11;;;;;;;2.40;2.27;;;;;;;;;;5014377;28;20210;-82
2023/03/01 01:53:40;;;;;;;2.83;2.23;;;;;;;;;;5014438;28;20261;-81
2023/03/01 01:56:09;;;;;;;4.13;3.77;;;;;;;;;;5013903;28;20273;-82
2023/03/01 01:58:37;;;;;;;3.07;2.93;;;;;;;;;;5013528;28;20299;-82
2023/03/01 02:01:07;;;;;;;2.60;2.40;;;;;;;;;;5014332;28;20205;-82
2023/03/01 02:03:41;;;;;;;2.37;2.27;;;;;;;;;;5014380;28;20200;-82
2023/03/01 02:06:14;;;;;;;1.10;1.10;;;;;;;;;;5013970;28;20231;-82
2023/03/01 02:08:43;;;;;;;3.67;3.40;;;;;;;;;;5014160;28;20232;-82
2023/03/01 02:11:14;;;;;;;2.10;2.00;;;;;;;;;;5013813;28;20235;-82
2023/03/01 02:13:43;;;;;;;1.53;1.53;;;;;;;;;;5014167;28;20252;-82
2023/03/01 02:16:14;;;;;;;3.00;2.80;;;;;;;;;;5013680;28;20201;-81
2023/03/01 02:18:43;;;;;;;2.80;2.70;;;;;;;;;;5014003;28;20209;-82
2023/03/01 02:21:19;;;;;;;3.10;3.00;;;;;;;;;;5013375;28;20199;-82
2023/03/01 02:23:47;;;;;;;1.07;1.07;;;;;;;;;;5013570;28;20213;-82
2023/03/01 02:26:21;;;;;;;4.03;3.73;;;;;;;;;;5013418;28;20229;-82
2023/03/01 02:28:50;;;;;;;3.07;2.87;;;;;;;;;;5013487;28;20305;-81
2023/03/01 02:34:08;;;;;;;3.67;2.63;;;;;;;;;;5013338;28;20206;-82
2023/03/01 02:36:37;;;;;;;2.80;2.60;;;;;;;;;;5013703;28;20251;-82
2023/03/01 02:39:06;;;;;;;2.60;2.30;;;;;;;;;;5013324;28;20248;-82
2023/03/01 02:41:37;;;;;;;2.80;2.70;;;;;;;;;;5013620;28;20256;-81
2023/03/01 02:44:08;;;;;;;2.00;1.90;;;;;;;;;;5013126;28;20196;-81
2023/03/01 02:46:43;;;;;;;1.40;1.40;;;;;;;;;;5013486;28;20331;-81
2023/03/01 02:49:20;;;;;;;4.53;2.60;;;;;;;;;;5013398;28;20214;-82
2023/03/01 02:51:54;;;;;;;2.70;2.50;;;;;;;;;;5013875;28;20224;-82
2023/03/01 02:54:24;;;;;;;4.63;4.23;;;;;;;;;;5013384;28;20317;-81
2023/03/01 02:56:52;;;;;;;1.27;1.27;;;;;;;;;;5013569;28;20222;-81
2023/03/01 02:59:24;;;;;;;3.20;3.00;;;;;;;;;;5013220;28;20240;-81
2023/03/01 03:01:52;;;;;;;2.50;2.30;;;;;;;;;;5013226;28;20233;-81
2023/03/01 03:04:20;;;;;;;1.43;1.43;;;;;;;;;;5015881;28;20229;-81
2023/03/01 03:06:50;;;;;;;1.73;1.73;;;;;;;;;;5016778;28;20229;-81
2023/03/01 03:09:19;;;;;;;1.10;1.10;;;;;;;;;;5016957;28;20202;-81
2023/03/01 03:11:48;;;;;;;1.10;1.10;;;;;;;;;;5017079;28;20236;-81
2023/03/01 03:14:17;;;;;;;1.10;1.10;;;;;;;;;;5016515;28;20205;-81
2023/03/01 03:16:48;;;;;;;3.43;3.23;;;;;;;;;;5016618;28;20200;-81
2023/03/01 03:19:16;;;;;;;2.70;2.50;;;;;;;;;;5017135;28;20213;-81
2023/03/01 03:21:45;;;;;;;1.13;1.13;;;;;;;;;;5016652;28;20202;-81
2023/03/01 03:24:13;;;;;;;1.63;1.50;;;;;;;;;;5016270;28;20273;-81
2023/03/01 03:26:42;;;;;;;1.10;1.10;;;;;;;;;;5016255;28;20289;-81
2023/03/01 03:29:10;;;;;;;2.10;2.00;;;;;;;;;;5015757;28;20228;-81
2023/03/01 03:31:38;;;;;;;1.97;1.90;;;;;;;;;;5016525;28;20241;-81
2023/03/01 03:34:10;;;;;;;2.00;1.97;;;;;;;;;;5016434;28;20204;-81
2023/03/01 03:36:39;;;;;;;2.73;2.63;;;;;;;;;;5016165;28;20236;-81
2023/03/01 03:39:07;;;;;;;2.47;2.37;;;;;;;;;;5016597;28;20212;-81
2023/03/01 03:41:36;;;;;;;5.17;4.77;;;;;;;;;;5016482;28;20244;-81
2023/03/01 03:44:04;;;;;;;3.30;2.87;;;;;;;;;;5016202;28;20205;-81
2023/03/01 03:46:33;;;;;;;4.13;3.87;;;;;;;;;;5015577;28;20241;-82
2023/03/01 03:49:01;;;;;;;6.43;5.83;;;;;;;;;;5015454;28;20209;-81
2023/03/01 03:51:31;;;;;;;3.90;3.67;;;;;;;;;;5015262;28;20202;-82
2023/03/01 03:54:00;;;;;;;1.30;1.30;;;;;;;;;;5015223;28;20233;-81
2023/03/01 03:56:28;;;;;;;2.03;1.93;;;;;;;;;;5015151;28;20196;-82
2023/03/01 03:58:57;;;;;;;1.10;1.10;;;;;;;;;;5015561;28;20216;-82
2023/03/01 04:01:26;;;;;;;1.10;1.10;;;;;;;;;;5015842;28;20234;-82
2023/03/01 04:03:55;;;;;;;1.67;1.57;;;;;;;;;;5015433;28;20208;-82
2023/03/01 04:06:23;;;;;;;1.63;1.63;;;;;;;;;;5015356;28;20225;-82
2023/03/01 04:08:58;;;;;;;1.10;1.10;;;;;;;;;;5015518;28;20199;-82
2023/03/01 04:11:29;;;;;;;1.73;1.73;;;;;;;;;;5015427;28;20195;-82
2023/03/01 04:13:58;;;;;;;3.40;3.20;;;;;;;;;;5015292;28;20300;-81
2023/03/01 04:16:27;;;;;;;1.10;1.10;;;;;;;;;;5015624;28;20198;-82
2023/03/01 04:18:56;;;;;;;2.30;2.27;;;;;;;;;;5015798;28;20196;-82
2023/03/01 04:21:24;;;;;;;1.50;1.50;;;;;;;;;;5015439;28;20237;-81
2023/03/01 04:23:54;;;;;;;1.37;1.37;;;;;;;;;;5015036;28;20275;-81
2023/03/01 04:26:22;;;;;;;3.53;3.03;;;;;;;;;;5015480;28;20241;-81
2023/03/01 04:28:51;;;;;;;1.07;1.07;;;;;;;;;;5014766;28;20232;-81
2023/03/01 04:31:21;;;;;;;16.03;2.33;;;;;;;;;;5014835;28;20289;-81
2023/03/01 04:33:52;;;;;;;1.10;1.10;;;;;;;;;;5015305;28;20204;-81
2023/03/01 04:36:21;;;;;;;1.03;1.03;;;;;;;;;;5015324;28;20202;-81
2023/03/01 04:38:49;;;;;;;1.00;1.00;;;;;;;;;;5014957;28;20202;-81
2023/03/01 04:41:20;;;;;;;2.27;2.17;;;;;;;;;;5014539;28;20238;-81
2023/03/01 04:43:49;;;;;;;1.70;1.70;;;;;;;;;;5014668;28;20202;-81
2023/03/01 04:46:19;;;;;;;2.90;2.63;;;;;;;;;;5014767;28;20226;-81
2023/03/01 04:48:48;;;;;;;3.17;2.97;;;;;;;;;;5015068;28;20209;-81
2023/03/01 04:51:18;;;;;;;1.60;1.50;;;;;;;;;;5014840;28;20206;-81
2023/03/01 04:53:46;;;;;;;1.07;1.07;;;;;;;;;;5014796;28;20298;-81
2023/03/01 04:56:15;;;;;;;2.30;2.30;;;;;;;;;;5015376;28;20202;-81
2023/03/01 04:58:45;;;;;;;1.10;1.10;;;;;;;;;;5014842;28;20207;-81
2023/03/01 05:01:15;;;;;;;1.30;1.30;;;;;;;;;;5015092;28;20296;-81
2023/03/01 05:03:44;;;;;;;1.07;1.07;;;;;;;;;;5014227;28;20207;-81
2023/03/01 05:06:13;;;;;;;1.10;1.10;;;;;;;;;;5014044;28;20201;-82
2023/03/01 05:08:42;;;;;;;1.77;1.67;;;;;;;;;;5014065;28;20209;-81
2023/03/01 05:11:11;;;;;;;1.10;1.10;;;;;;;;;;5014547;28;20228;-81
2023/03/01 05:13:40;;;;;;;1.10;1.10;;;;;;;;;;5014272;28;20256;-81
2023/03/01 05:16:10;;;;;;;1.00;1.00;;;;;;;;;;5014052;28;20237;-81
2023/03/01 05:18:40;;;;;;;2.67;2.57;;;;;;;;;;5014074;28;20301;-81
2023/03/01 05:21:09;;;;;;;2.10;2.10;;;;;;;;;;5014455;28;20204;-82
2023/03/01 05:23:38;;;;;;;2.23;2.13;;;;;;;;;;5013622;28;20201;-81
2023/03/01 05:26:08;;;;;;;1.60;1.60;;;;;;;;;;5013883;28;20225;-82
2023/03/01 05:28:58;;;;;;;1.00;1.00;;;;;;;;;;5013783;28;20202;-81
2023/03/01 05:31:30;;;;;;;1.30;1.30;;;;;;;;;;5013756;28;20304;-81
2023/03/01 05:33:59;;;;;;;3.30;3.10;;;;;;;;;;5013877;28;20205;-81
2023/03/01 05:36:27;;;;;;;3.67;3.47;;;;;;;;;;5013454;28;20220;-81
2023/03/01 05:38:56;;;;;;;1.10;1.10;;;;;;;;;;5013919;28;20213;-82
2023/03/01 05:41:24;;;;;;;1.53;1.53;;;;;;;;;;5013889;28;20233;-81
2023/03/01 05:43:53;;;;;;;1.20;1.20;;;;;;;;;;5013443;28;20205;-81
2023/03/01 05:46:24;;;;;;;1.10;1.10;;;;;;;;;;5013987;28;20208;-81
2023/03/01 05:48:55;;;;;;;5.27;4.47;;;;;;;;;;5013580;28;20193;-82
2023/03/01 05:51:23;;;;;;;33.13;7.63;;;;;;;;;;5013777;28;20196;-82
2023/03/01 05:53:51;;;;;;;2.63;2.43;;;;;;;;;;5013584;28;20243;-82
2023/03/01 05:56:22;;;;;;;1.00;1.00;;;;;;;;;;5013902;28;20202;-82
2023/03/01 05:58:50;;;;;;;1.40;1.40;;;;;;;;;;5013884;28;20259;-81
2023/03/01 06:01:19;;;;;;;1.00;1.00;;;;;;;;;;5014086;28;20400;-81
2023/03/01 06:03:47;;;;;;;1.43;1.43;;;;;;;;;;5013876;28;20202;-81
2023/03/01 06:06:17;;;;;;;2.87;2.47;;;;;;;;;;5013689;28;20254;-81
2023/03/01 06:08:45;;;;;;;2.57;2.53;;;;;;;;;;5013815;28;20221;-81
2023/03/01 06:11:14;;;;;;;1.20;1.20;;;;;;;;;;5013725;28;20230;-81
2023/03/01 06:13:42;;;;;;;1.40;1.40;;;;;;;;;;5013681;28;20202;-81
2023/03/01 06:16:11;;;;;;;3.90;2.33;;;;;;;;;;5014200;28;20258;-81
2023/03/01 06:18:40;;;;;;;16.53;5.47;;;;;;;;;;5013915;28;20196;-81
2023/03/01 06:21:09;;;;;;;12.57;4.73;;;;;;;;;;5013653;28;20308;-81
2023/03/01 06:23:38;;;;;;;24.87;4.80;;;;;;;;;;5013524;28;20204;-82
2023/03/01 06:26:08;;;;;;;1.50;1.47;;;;;;;;;;5013346;28;20215;-82
2023/03/01 06:28:36;;;;;;;4.77;3.20;;;;;;;;;;5013338;28;20256;-82
2023/03/01 06:31:08;;;;;;;8.70;6.17;;;;;;;;;;5013197;28;20209;-82
2023/03/01 06:33:37;;;;;;;8.97;6.50;;;;;;;;;;5013749;28;20203;-81
2023/03/01 06:36:09;;;;;;;6.10;3.63;;;;;;;;;;5013490;28;20195;-81
2023/03/01 06:38:40;;;;;;;16.40;5.73;;;;;;;;;;5015020;28;20196;-82
2023/03/01 06:41:09;;;;;;;20.30;5.23;;;;;;;;;;5017196;28;20254;-81
2023/03/01 06:43:37;;;;;;;3.30;3.13;;;;;;;;;;5016789;28;20205;-81
2023/03/01 06:46:06;;;;;;;2.20;2.10;;;;;;;;;;5016453;28;20203;-82
2023/03/01 06:48:35;;;;;;;1.40;1.40;;;;;;;;;;5017007;28;20221;-82
2023/03/01 06:51:03;;;;;;;11.37;6.03;;;;;;;;;;5016825;28;20198;-82
2023/03/01 06:53:32;;;;;;;3.80;3.03;;;;;;;;;;5016993;28;20236;-82
2023/03/01 06:56:02;;;;;;;40.43;6.37;;;;;;;;;;5017254;28;20227;-82
2023/03/01 06:58:30;;;;;;;2.30;2.20;;;;;;;;;;5017221;28;20195;-82
2023/03/01 07:00:58;;;;;;;28.17;7.27;;;;;;;;;;5017359;28;20196;-82
2023/03/01 07:03:27;;;;;;;1.10;1.10;;;;;;;;;;5017301;28;20193;-82
2023/03/01 07:05:55;;;;;;;1.00;1.00;;;;;;;;;;5017456;28;20227;-81
2023/03/01 07:08:24;;;;;;;5.10;3.83;;;;;;;;;;5017161;28;20251;-81
2023/03/01 07:10:56;;;;;;;1.53;1.53;;;;;;;;;;5017875;28;20300;-82
2023/03/01 07:13:26;;;;;;;1.70;1.60;;;;;;;;;;5017807;28;20241;-82
2023/03/01 07:15:55;;;;;;;1.53;1.53;;;;;;;;;;5017674;28;20204;-82
2023/03/01 07:18:23;;;;;;;1.10;1.10;;;;;;;;;;5018139;28;20287;-82
2023/03/01 07:20:52;;;;;;;1.03;1.03;;;;;;;;;;5017568;28;20201;-82
2023/03/01 07:23:20;;;;;;;2.10;1.90;;;;;;;;;;5017558;28;20214;-82
2023/03/01 07:25:53;;;;;;;4.03;3.67;;;;;;;;;;5017673;28;20200;-82
2023/03/01 07:28:21;;;;;;;1.63;1.63;;;;;;;;;;5017351;28;20287;-82
2023/03/01 07:30:51;;;;;;;1.70;1.70;;;;;;;;;;5017768;28;20201;-82
2023/03/01 07:33:19;;;;;;;1.90;1.83;;;;;;;;;;5017226;28;20221;-82
2023/03/01 07:35:48;;;;;;;1.63;1.57;;;;;;;;;;5016812;28;20204;-81
2023/03/01 07:38:16;;;;;;;5.03;3.67;;;;;;;;;;5016622;28;20185;-82
2023/03/01 07:40:45;;;;;;;2.80;2.63;;;;;;;;;;5016334;28;20259;-81
2023/03/01 07:43:13;;;;;;;2.67;2.47;;;;;;;;;;5016047;28;20255;-82
2023/03/01 07:45:42;;;;;;;3.07;2.87;;;;;;;;;;5015447;28;20202;-82
2023/03/01 07:48:12;;;;;;;2.80;2.60;;;;;;;;;;5015788;28;20246;-82
2023/03/01 07:50:40;;;;;;;2.37;2.10;;;;;;;;;;5015139;28;20213;-82
2023/03/01 07:53:09;;;;;;;2.57;2.37;;;;;;;;;;5015649;28;20234;-82
2023/03/01 07:55:37;;;;;;;5.50;4.43;;;;;;;;;;5015695;28;20195;-82
2023/03/01 07:58:06;;;;;;;1.93;1.83;;;;;;;;;;5015535;28;20211;-82
2023/03/01 08:00:34;;;;;;;1.20;1.20;;;;;;;;;;5015439;28;20236;-82
2023/03/01 08:03:03;;;;;;;2.47;2.37;;;;;;;;;;5015313;28;20217;-82
2023/03/01 08:05:33;;;;;;;1.57;1.57;;;;;;;;;;5015353;28;20210;-82
2023/03/01 08:08:02;;;;;;;3.33;2.90;;;;;;;;;;5015126;28;20226;-82
2023/03/01 08:10:30;;;;;;;3.10;2.80;;;;;;;;;;5015323;28;20206;-83
2023/03/01 08:12:58;;;;;;;1.10;1.10;;;;;;;;;;5016000;28;20206;-82
2023/03/01 08:15:27;;;;;;;7.33;5.40;;;;;;;;;;5015121;28;20208;-83
2023/03/01 08:17:55;;;;;;;4.40;4.00;;;;;;;;;;5014921;28;20218;-82
2023/03/01 08:20:24;;;;;;;2.23;2.10;;;;;;;;;;5015231;28;20202;-82
2023/03/01 08:22:53;;;;;;;6.07;5.47;;;;;;;;;;5014833;28;20215;-83
2023/03/01 08:25:22;;;;;;;4.80;3.47;;;;;;;;;;5014850;28;20268;-83
2023/03/01 08:27:50;;;;;;;2.27;2.13;;;;;;;;;;5014746;28;20210;-82
2023/03/01 08:30:20;;;;;;;5.80;4.80;;;;;;;;;;5015033;28;20206;-83
2023/03/01 08:32:48;;;;;;;3.20;3.10;;;;;;;;;;5014835;28;20230;-83
2023/03/01 08:35:17;;;;;;;2.00;1.90;;;;;;;;;;5014514;28;20216;-82
2023/03/01 08:37:45;;;;;;;5.00;3.50;;;;;;;;;;5014263;28;20199;-83
2023/03/01 08:40:15;;;;;;;4.33;3.20;;;;;;;;;;5014532;28;20243;-82
2023/03/01 08:42:44;;;;;;;6.07;5.33;;;;;;;;;;5014362;28;20192;-83
2023/03/01 08:45:14;;;;;;;3.80;3.60;;;;;;;;;;5014552;28;20264;-82
2023/03/01 08:47:42;;;;;;;4.33;4.03;;;;;;;;;;5014843;28;20202;-82
2023/03/01 08:50:11;;;;;;;5.83;4.50;;;;;;;;;;5014466;28;20227;-83
2023/03/01 08:52:39;;;;;;;5.47;4.90;;;;;;;;;;5015125;28;20240;-83
2023/03/01 08:55:09;;;;;;;3.73;3.53;;;;;;;;;;5014244;28;20245;-83
2023/03/01 08:57:40;;;;;;;4.80;4.40;;;;;;;;;;5011615;28;20329;-83
2023/03/01 09:00:09;;;;;;;1.00;1.00;;;;;;;;;;5014501;28;20252;-84
2023/03/01 09:02:38;;;;;;;3.87;3.67;;;;;;;;;;5011979;28;20253;-84
2023/03/01 09:05:07;;;;;;;7.40;5.43;;;;;;;;;;5012830;28;20211;-84
2023/03/01 09:07:35;;;;;;;6.00;5.50;;;;;;;;;;5013282;28;20218;-83
2023/03/01 09:10:04;;;;;;;12.83;9.00;;;;;;;;;;5011445;28;20474;-83
2023/03/01 09:12:33;;;;;;;4.87;4.47;;;;;;;;;;5006243;28;20425;-83
2023/03/01 09:15:03;;;;;;;4.37;3.70;;;;;;;;;;5003369;28;20261;-83
2023/03/01 09:17:31;;;;;;;12.13;8.43;;;;;;;;;;5012851;28;20227;-83
2023/03/01 09:20:00;;;;;;;10.40;7.60;;;;;;;;;;5008010;28;20230;-84
2023/03/01 09:22:29;;;;;;;3.87;3.57;;;;;;;;;;5004840;28;20295;-83
2023/03/01 09:24:59;;;;;;;12.60;10.03;;;;;;;;;;5008762;28;20290;-82
2023/03/01 09:27:27;;;;;;;8.10;5.23;;;;;;;;;;5010683;28;20211;-82
2023/03/01 09:29:57;;;;;;;7.17;5.37;;;;;;;;;;5012223;28;20222;-82
2023/03/01 09:32:27;;;;;;;15.57;11.60;;;;;;;;;;5008322;28;20200;-83
2023/03/01 09:35:07;;;;;;;14.93;10.63;;;;;;;;;;5007625;28;20215;-82
2023/03/01 09:37:37;;;;;;;13.03;9.90;;;;;;;;;;5012200;28;20207;-82
2023/03/01 09:40:07;;;;;;;2.13;2.03;;;;;;;;;;5009692;28;20215;-82
2023/03/01 09:42:37;;;;;;;13.53;10.63;;;;;;;;;;5011102;28;20223;-82
2023/03/01 09:45:07;;;;;;;14.30;11.60;;;;;;;;;;5010208;28;20243;-83
2023/03/01 09:47:37;;;;;;;12.30;8.67;;;;;;;;;;5008873;28;20207;-83
2023/03/01 09:50:08;;;;;;;11.50;8.70;;;;;;;;;;5005441;28;20276;-83
2023/03/01 09:52:40;;;;;;;9.87;8.03;;;;;;;;;;5006841;28;20238;-84
2023/03/01 09:55:14;;;;;;;22.33;15.37;;;;;;;;;;5006794;28;20334;-83
2023/03/01 09:57:48;;;;;;;13.53;8.97;;;;;;;;;;5010094;28;20202;-83
2023/03/01 10:00:30;;;;;;;23.60;17.57;;;;;;;;;;5008117;28;20278;-84
2023/03/01 10:03:03;;;;;;;8.50;5.83;;;;;;;;;;5008350;28;20250;-85
2023/03/01 10:05:45;;;;;;;17.63;12.77;;;;;;;;;;5009024;28;20284;-84
2023/03/01 10:08:25;;;;;;;10.27;8.33;;;;;;;;;;5008159;28;20214;-84
2023/03/01 10:10:53;;;;;;;6.10;5.40;;;;;;;;;;5007067;28;20219;-85
2023/03/01 10:13:24;;;;;;;13.13;8.73;;;;;;;;;;5010539;28;20196;-83
2023/03/01 10:15:55;;;;;;;13.50;10.53;;;;;;;;;;5013243;28;20306;-84
2023/03/01 10:18:28;;;;;;;11.90;9.13;;;;;;;;;;5009758;28;20212;-84
2023/03/01 10:20:58;;;;;;;9.10;6.43;;;;;;;;;;5005454;28;20207;-84
2023/03/01 10:23:27;;;;;;;27.23;16.80;;;;;;;;;;5011604;28;20235;-84
2023/03/01 10:26:03;;;;;;;14.37;9.80;;;;;;;;;;5011043;28;20284;-83
2023/03/01 10:28:37;;;;;;;10.60;7.83;;;;;;;;;;5008000;28;20203;-83
2023/03/01 10:31:06;;;;;;;5.03;4.53;;;;;;;;;;5014202;28;20223;-84
2023/03/01 10:33:44;;;;;;;14.10;9.67;;;;;;;;;;5016191;28;20195;-84
2023/03/01 10:36:12;;;;;;;15.70;10.20;;;;;;;;;;5016731;28;20264;-85
2023/03/01 10:38:52;;;;;;;12.20;10.07;;;;;;;;;;5007965;28;20205;-84
2023/03/01 10:41:23;;;;;;;4.47;3.70;;;;;;;;;;5014530;28;20231;-83
2023/03/01 10:43:53;;;;;;;10.70;8.83;;;;;;;;;;5005134;28;20218;-84
2023/03/01 10:46:26;;;;;;;23.47;14.83;;;;;;;;;;5013830;28;20204;-83
2023/03/01 10:49:21;;;;;;;13.83;11.73;;;;;;;;;;5015737;28;20286;-84
2023/03/01 10:51:52;;;;;;;21.37;15.20;;;;;;;;;;4976940;28;20254;-83
2023/03/01 10:54:22;;;;;;;17.90;16.00;;;;;;;;;;5015574;28;20252;-83
2023/03/01 10:56:53;;;;;;;24.10;16.03;;;;;;;;;;5012989;28;20247;-83
2023/03/01 10:59:28;;;;;;;8.70;7.80;;;;;;;;;;5014258;28;20296;-83
2023/03/01 11:05:33;;;;;;;13.20;7.37;;;;;;;;;;5011330;28;20295;-84
2023/03/01 11:08:04;;;;;;;9.57;8.57;;;;;;;;;;5014485;28;20272;-83
2023/03/01 11:10:33;;;;;;;4.67;4.23;;;;;;;;;;5013031;28;20227;-83
2023/03/01 11:13:08;;;;;;;10.80;7.90;;;;;;;;;;5015149;28;20226;-83
2023/03/01 11:15:38;;;;;;;5.67;5.27;;;;;;;;;;5012353;28;20254;-83
2023/03/01 11:18:19;;;;;;;5.20;4.10;;;;;;;;;;5007712;28;20299;-83
2023/03/01 11:20:48;;;;;;;7.20;6.23;;;;;;;;;;5005520;28;20211;-82
2023/03/01 11:23:18;;;;;;;7.53;4.30;;;;;;;;;;5014890;28;20304;-82
2023/03/01 11:25:50;;;;;;;15.23;7.37;;;;;;;;;;5009786;28;20208;-82
2023/03/01 11:28:19;;;;;;;6.13;4.77;;;;;;;;;;5014598;28;20278;-82
2023/03/01 11:30:50;;;;;;;5.53;5.13;;;;;;;;;;5011454;28;20230;-83
2023/03/01 11:33:36;;;;;;;5.33;4.30;;;;;;;;;;5011654;28;20203;-83
2023/03/01 11:36:08;;;;;;;8.57;7.63;;;;;;;;;;5006471;28;20205;-82
2023/03/01 11:38:40;;;;;;;7.07;6.07;;;;;;;;;;5000132;28;20299;-82
2023/03/01 11:41:11;;;;;;;7.43;5.80;;;;;;;;;;5013856;28;20491;-82
2023/03/01 11:43:43;;;;;;;7.10;6.43;;;;;;;;;;5015542;28;20212;-82
2023/03/01 11:46:32;;;;;;;5.10;4.70;;;;;;;;;;5015030;28;20207;-82
2023/03/01 11:49:07;;;;;;;6.57;5.80;;;;;;;;;;5014093;28;20208;-82
2023/03/01 11:51:41;;;;;;;4.77;4.30;;;;;;;;;;5015502;28;20219;-82
2023/03/01 11:54:25;;;;;;;8.03;7.07;;;;;;;;;;5013014;28;20239;-82
2023/03/01 11:56:56;;;;;;;4.83;4.43;;;;;;;;;;5007490;28;20212;-82
2023/03/01 11:59:33;;;;;;;6.23;5.67;;;;;;;;;;5005967;28;20214;-82
2023/03/01 12:02:20;;;;;;;5.40;4.90;;;;;;;;;;5007833;28;20362;-82
2023/03/01 12:05:03;;;;;;;7.70;6.13;;;;;;;;;;5009978;28;20219;-82
2023/03/01 12:07:34;;;;;;;6.50;5.90;;;;;;;;;;5005260;28;20454;-82
2023/03/01 12:10:20;;;;;;;18.60;4.17;;;;;;;;;;5015762;28;20215;-83
2023/03/01 12:12:55;;;;;;;44.33;6.33;;;;;;;;;;5009067;28;20204;-84
2023/03/01 12:15:43;;;;;;;6.00;5.40;;;;;;;;;;5013272;28;20237;-84
2023/03/01 12:18:30;;;;;;;8.67;7.70;;;;;;;;;;5015075;28;20257;-83
2023/03/01 12:21:04;;;;;;;9.30;5.57;;;;;;;;;;5013905;28;20192;-82
2023/03/01 12:23:57;;;;;;;7.97;5.23;;;;;;;;;;5011343;28;20203;-82
2023/03/01 12:26:30;;;;;;;8.57;7.20;;;;;;;;;;4942338;28;20210;-83
2023/03/01 12:29:19;;;;;;;6.30;5.70;;;;;;;;;;5006795;28;20227;-83
2023/03/01 12:32:19;;;;;;;6.37;5.70;;;;;;;;;;5014866;28;20261;-82
2023/03/01 12:35:07;;;;;;;9.63;8.70;;;;;;;;;;4954114;28;20214;-83
2023/03/01 12:37:42;;;;;;;7.23;5.73;;;;;;;;;;5008429;28;20246;-82
2023/03/01 12:40:22;;;;;;;9.03;6.80;;;;;;;;;;5014617;28;20268;-83
2023/03/01 12:42:58;;;;;;;7.73;6.73;;;;;;;;;;5011165;28;20207;-82
2023/03/01 12:45:41;;;;;;;6.77;5.53;;;;;;;;;;5013506;28;20196;-82
2023/03/01 12:48:16;;;;;;;6.60;4.77;;;;;;;;;;5005793;28;20215;-82
2023/03/01 12:50:45;;;;;;;8.30;6.37;;;;;;;;;;5009327;28;20246;-82
2023/03/01 12:53:21;;;;;;;7.77;5.70;;;;;;;;;;5015104;28;20208;-82
2023/03/01 12:55:50;;;;;;;5.70;3.97;;;;;;;;;;5014702;28;20191;-82
2023/03/01 12:58:25;;;;;;;9.83;7.17;;;;;;;;;;5011935;28;20211;-82
2023/03/01 13:01:22;;;;;;;10.10;8.07;;;;;;;;;;5008812;28;20215;-82
2023/03/01 13:04:01;;;;;;;9.30;7.37;;;;;;;;;;5009489;28;20246;-82
2023/03/01 13:06:40;;;;;;;6.03;5.47;;;;;;;;;;5014492;28;20207;-82
2023/03/01 13:09:16;;;;;;;7.23;5.30;;;;;;;;;;5014392;28;20200;-82
2023/03/01 13:11:44;;;;;;;6.67;5.40;;;;;;;;;;5002710;28;20224;-82
2023/03/01 13:14:31;;;;;;;7.07;5.17;;;;;;;;;;5014102;28;20203;-83
2023/03/01 13:17:01;;;;;;;8.20;7.37;;;;;;;;;;5014068;28;20211;-83
2023/03/01 13:19:32;;;;;;;10.00;6.80;;;;;;;;;;5011488;28;20289;-83
2023/03/01 13:22:01;;;;;;;9.23;8.03;;;;;;;;;;5002530;28;20204;-83
2023/03/01 13:24:30;;;;;;;9.73;7.27;;;;;;;;;;5011610;28;20223;-83
2023/03/01 13:27:28;;;;;;;7.03;6.20;;;;;;;;;;5013676;28;20192;-82
2023/03/01 13:29:59;;;;;;;8.73;7.23;;;;;;;;;;5013362;28;20330;-83
2023/03/01 13:32:31;;;;;;;6.87;6.17;;;;;;;;;;5011429;28;20228;-84
2023/03/01 13:35:44;;;;;;;16.20;10.33;;;;;;;;;;5009691;28;20201;-83
2023/03/01 13:38:27;;;;;;;6.63;3.20;;;;;;;;;;4976968;28;20215;-83
2023/03/01 13:41:00;;;;;;;8.23;6.80;;;;;;;;;;4997447;28;20221;-83
2023/03/01 13:43:33;;;;;;;9.83;7.43;;;;;;;;;;5012296;28;20206;-81
2023/03/01 13:46:16;;;;;;;17.83;11.73;;;;;;;;;;5013512;28;20267;-82
2023/03/01 13:49:16;;;;;;;9.43;8.47;;;;;;;;;;5004972;28;20265;-82
2023/03/01 13:54:57;;;;;;;11.70;9.40;;;;;;;;;;5002931;28;20315;-83
2023/03/01 13:57:34;;;;;;;18.10;13.37;;;;;;;;;;5011810;28;20193;-82
2023/03/01 14:00:07;;;;;;;6.33;5.50;;;;;;;;;;5010079;28;20199;-83
2023/03/01 14:02:47;;;;;;;18.83;10.47;;;;;;;;;;5013999;28;20200;-83
2023/03/01 14:06:07;;;;;;;12.83;7.33;;;;;;;;;;5013434;28;20192;-82
2023/03/01 14:08:43;;;;;;;13.60;12.17;;;;;;;;;;4994607;28;20235;-82
2023/03/01 14:11:39;;;;;;;4.37;3.40;;;;;;;;;;5007462;28;20227;-83
2023/03/01 14:14:26;;;;;;;9.73;7.37;;;;;;;;;;5007196;28;20201;-83
2023/03/01 14:17:05;;;;;;;11.53;7.67;;;;;;;;;;5004887;28;20275;-82
2023/03/01 14:19:45;;;;;;;18.23;13.87;;;;;;;;;;5013886;28;20200;-83
2023/03/01 14:22:22;;;;;;;8.37;5.90;;;;;;;;;;5013239;28;20222;-83
2023/03/01 14:24:54;;;;;;;17.87;11.60;;;;;;;;;;5008765;28;20202;-82
2023/03/01 14:27:23;;;;;;;11.20;9.43;;;;;;;;;;5011532;28;20260;-83
2023/03/01 14:30:12;;;;;;;11.87;9.83;;;;;;;;;;5011982;28;20203;-82
2023/03/01 14:32:40;;;;;;;18.00;13.00;;;;;;;;;;4998509;28;20212;-82
2023/03/01 14:35:23;;;;;;;12.20;10.90;;;;;;;;;;5010986;28;20195;-82
2023/03/01 14:37:58;;;;;;;9.67;8.70;;;;;;;;;;5008733;28;20283;-82
2023/03/01 14:40:29;;;;;;;7.77;6.03;;;;;;;;;;5013280;28;20223;-83
2023/03/01 14:43:09;;;;;;;10.37;9.27;;;;;;;;;;5013363;28;20209;-81
2023/03/01 14:48:34;;;;;;;8.57;7.10;;;;;;;;;;5015276;28;20209;-81
2023/03/01 14:51:06;;;;;;;13.60;12.00;;;;;;;;;;5013248;28;20194;-82
2023/03/01 14:53:37;;;;;;;11.83;9.97;;;;;;;;;;5004720;28;20227;-82
2023/03/01 14:56:19;;;;;;;14.40;9.10;;;;;;;;;;5008344;28;20214;-82
2023/03/01 14:58:48;;;;;;;13.50;9.60;;;;;;;;;;5012088;28;20202;-82
2023/03/01 15:01:18;;;;;;;13.13;9.03;;;;;;;;;;5003533;28;20215;-82
2023/03/01 15:03:48;;;;;;;9.03;8.13;;;;;;;;;;5015554;28;20214;-82
2023/03/01 15:06:22;;;;;;;12.47;10.53;;;;;;;;;;5016915;28;20226;-82
2023/03/01 15:08:53;;;;;;;6.60;5.83;;;;;;;;;;5017130;28;20211;-82
2023/03/01 15:11:29;;;;;;;10.87;9.07;;;;;;;;;;5016504;28;20234;-82
2023/03/01 15:13:59;;;;;;;10.53;8.40;;;;;;;;;;5016372;28;20195;-83
2023/03/01 15:16:28;;;;;;;9.60;8.43;;;;;;;;;;5016665;28;20242;-81
2023/03/01 15:18:58;;;;;;;13.07;7.50;;;;;;;;;;5017718;28;20255;-82